sensor_id;sensor_type;location;lat;lon;timestamp;pressure;altitude;pressure_sealevel;temperature;humidity
13068;BME280;6600;51.362;6.686;2022-10-14T00:01:30;101151.81;;;13.19;100.00
13068;BME280;6600;51.362;6.686;2022-10-14T00:03:57;101153.03;;;13.23;100.00
13068;BME280;6600;51.362;6.686;2022-10-14T00:06:31;101144.34;;;13.21;100.00
13068;BME280;6600;51.362;6.686;2022-10-14T00:09:02;101144.34;;;13.21;100.00
13068;BME280;6600;51.362;6.686;2022-10-14T00:11:30;101146.00;;;13.22;100.00
13068;BME280;6600;51.362;6.686;2022-10-14T00:13:59;101141.06;;;13.19;100.00
13068;BME280;6600;51.362;6.686;2022-10-14T00:16:30;101139.78;;;13.22;100.00
13068;BME280;6600;51.362;6.686;2022-10-14T00:18:57;101136.72;;;13.18;100.00
13068;BME280;6600;51.362;6.686;2022-10-14T00:21:22;101138.94;;;13.21;100.00
13068;BME280;6600;51.362;6.686;2022-10-14T00:23:48;101136.88;;;13.23;100.00
13068;BME280;6600;51.362;6.686;2022-10-14T00:26:19;101140.59;;;13.22;100.00
13068;BME280;6600;51.362;6.686;2022-10-14T00:28:44;101137.91;;;13.22;100.00
13068;BME280;6600;51.362;6.686;2022-10-14T00:31:10;101133.56;;;13.21;100.00
13068;BME280;6600;51.362;6.686;2022-10-14T00:33:35;101140.03;;;13.20;100.00
13068;BME280;6600;51.362;6.686;2022-10-14T00:36:02;101141.66;;;13.21;100.00
13068;BME280;6600;51.362;6.686;2022-10-14T00:38:28;101148.09;;;13.20;100.00
13068;BME280;6600;51.362;6.686;2022-10-14T00:40:54;101143.50;;;13.21;100.00
13068;BME280;6600;51.362;6.686;2022-10-14T00:43:21;101140.22;;;13.19;100.00
13068;BME280;6600;51.362;6.686;2022-10-14T00:45:47;101144.78;;;13.18;100.00
13068;BME280;6600;51.362;6.686;2022-10-14T00:48:13;101140.81;;;13.21;100.00
13068;BME280;6600;51.362;6.686;2022-10-14T00:50:41;101144.78;;;13.18;100.00
13068;BME280;6600;51.362;6.686;2022-10-14T00:53:09;101143.13;;;13.17;100.00
13068;BME280;6600;51.362;6.686;2022-10-14T00:55:37;101138.38;;;13.19;100.00
13068;BME280;6600;51.362;6.686;2022-10-14T00:58:03;101138.81;;;13.16;100.00
13068;BME280;6600;51.362;6.686;2022-10-14T01:00:29;101139.63;;;13.17;100.00
13068;BME280;6600;51.362;6.686;2022-10-14T01:02:55;101138.56;;;13.18;100.00
13068;BME280;6600;51.362;6.686;2022-10-14T01:05:21;101134.63;;;13.20;100.00
13068;BME280;6600;51.362;6.686;2022-10-14T01:10:20;101140.22;;;13.19;100.00
13068;BME280;6600;51.362;6.686;2022-10-14T01:13:07;101132.81;;;13.14;100.00
13068;BME280;6600;51.362;6.686;2022-10-14T01:15:40;101136.56;;;13.13;100.00
13068;BME280;6600;51.362;6.686;2022-10-14T01:26:42;101117.88;;;13.18;100.00
13068;BME280;6600;51.362;6.686;2022-10-14T01:29:26;101108.97;;;13.18;100.00
13068;BME280;6600;51.362;6.686;2022-10-14T01:32:02;101103.38;;;13.19;100.00
13068;BME280;6600;51.362;6.686;2022-10-14T01:34:38;101101.28;;;13.21;100.00
13068;BME280;6600;51.362;6.686;2022-10-14T01:37:12;101105.03;;;13.20;100.00
13068;BME280;6600;51.362;6.686;2022-10-14T01:39:46;101096.34;;;13.18;100.00
13068;BME280;6600;51.362;6.686;2022-10-14T01:42:18;101096.81;;;13.15;100.00
13068;BME280;6600;51.362;6.686;2022-10-14T01:44:49;101092.00;;;13.17;100.00
13068;BME280;6600;51.362;6.686;2022-10-14T01:47:18;101083.13;;;13.17;100.00
13068;BME280;6600;51.362;6.686;2022-10-14T01:49:52;101086.41;;;13.19;100.00
13068;BME280;6600;51.362;6.686;2022-10-14T01:52:24;101075.84;;;13.17;100.00
13068;BME280;6600;51.362;6.686;2022-10-14T01:54:54;101085.22;;;13.14;100.00
13068;BME280;6600;51.362;6.686;2022-10-14T01:57:23;101088.94;;;13.13;100.00
13068;BME280;6600;51.362;6.686;2022-10-14T01:59:52;101083.56;;;13.13;100.00
13068;BME280;6600;51.362;6.686;2022-10-14T02:02:18;101076.09;;;13.15;100.00
13068;BME280;6600;51.362;6.686;2022-10-14T02:04:44;101077.97;;;13.15;100.00
13068;BME280;6600;51.362;6.686;2022-10-14T02:07:14;101081.25;;;13.17;100.00
13068;BME280;6600;51.362;6.686;2022-10-14T02:15:37;101078.72;;;13.22;100.00
13068;BME280;6600;51.362;6.686;2022-10-14T02:20:43;101081.41;;;13.22;100.00
13068;BME280;6600;51.362;6.686;2022-10-14T02:23:14;101081.63;;;13.21;100.00
13068;BME280;6600;51.362;6.686;2022-10-14T02:25:44;101074.38;;;13.21;100.00
13068;BME280;6600;51.362;6.686;2022-10-14T02:28:12;101076.41;;;13.26;100.00
13068;BME280;6600;51.362;6.686;2022-10-14T02:30:43;101069.53;;;13.30;100.00
13068;BME280;6600;51.362;6.686;2022-10-14T02:33:10;101065.44;;;13.27;100.00
13068;BME280;6600;51.362;6.686;2022-10-14T02:35:37;101069.28;;;13.31;100.00
13068;BME280;6600;51.362;6.686;2022-10-14T02:38:05;101052.34;;;13.31;100.00
13068;BME280;6600;51.362;6.686;2022-10-14T02:40:35;101062.75;;;13.27;100.00
13068;BME280;6600;51.362;6.686;2022-10-14T02:43:01;101053.59;;;13.28;100.00
13068;BME280;6600;51.362;6.686;2022-10-14T02:45:26;101050.31;;;13.26;100.00
13068;BME280;6600;51.362;6.686;2022-10-14T02:47:52;101047.63;;;13.26;100.00
13068;BME280;6600;51.362;6.686;2022-10-14T02:50:18;101036.19;;;13.31;100.00
13068;BME280;6600;51.362;6.686;2022-10-14T02:52:44;101032.06;;;13.28;100.00
13068;BME280;6600;51.362;6.686;2022-10-14T02:55:10;101026.22;;;13.31;100.00
13068;BME280;6600;51.362;6.686;2022-10-14T02:57:35;101033.94;;;13.28;100.00
13068;BME280;6600;51.362;6.686;2022-10-14T03:00:01;101038.50;;;13.27;100.00
13068;BME280;6600;51.362;6.686;2022-10-14T03:02:26;101041.63;;;13.24;100.00
13068;BME280;6600;51.362;6.686;2022-10-14T03:04:51;101027.28;;;13.30;100.00
13068;BME280;6600;51.362;6.686;2022-10-14T03:07:17;101031.25;;;13.28;100.00
13068;BME280;6600;51.362;6.686;2022-10-14T03:09:42;101021.53;;;13.27;100.00
13068;BME280;6600;51.362;6.686;2022-10-14T03:12:07;101030.88;;;13.24;100.00
13068;BME280;6600;51.362;6.686;2022-10-14T03:14:33;101025.44;;;13.31;100.00
13068;BME280;6600;51.362;6.686;2022-10-14T03:16:58;101026.69;;;13.28;100.00
13068;BME280;6600;51.362;6.686;2022-10-14T03:19:23;101020.09;;;13.24;100.00
13068;BME280;6600;51.362;6.686;2022-10-14T03:21:49;101020.09;;;13.24;100.00
13068;BME280;6600;51.362;6.686;2022-10-14T03:24:15;101019.06;;;13.25;100.00
13068;BME280;6600;51.362;6.686;2022-10-14T03:26:40;101014.13;;;13.22;100.00
13068;BME280;6600;51.362;6.686;2022-10-14T03:29:06;101019.53;;;13.22;100.00
13068;BME280;6600;51.362;6.686;2022-10-14T03:31:31;101018.94;;;13.20;100.00
13068;BME280;6600;51.362;6.686;2022-10-14T03:33:56;101026.75;;;13.22;100.00
13068;BME280;6600;51.362;6.686;2022-10-14T03:36:22;101015.16;;;13.21;100.00
13068;BME280;6600;51.362;6.686;2022-10-14T03:38:47;101018.47;;;13.23;100.00
13068;BME280;6600;51.362;6.686;2022-10-14T03:41:12;101013.09;;;13.23;100.00
13068;BME280;6600;51.362;6.686;2022-10-14T03:43:38;101013.31;;;13.22;100.00
13068;BME280;6600;51.362;6.686;2022-10-14T03:46:03;101015.41;;;13.20;100.00
13068;BME280;6600;51.362;6.686;2022-10-14T03:48:28;101006.50;;;13.19;100.00
13068;BME280;6600;51.362;6.686;2022-10-14T03:50:54;101015.16;;;13.21;100.00
13068;BME280;6600;51.362;6.686;2022-10-14T03:53:19;101013.09;;;13.23;100.00
13068;BME280;6600;51.362;6.686;2022-10-14T03:55:44;101010.41;;;13.23;100.00
13068;BME280;6600;51.362;6.686;2022-10-14T03:58:10;101009.78;;;13.21;100.00
13068;BME280;6600;51.362;6.686;2022-10-14T04:00:36;100994.38;;;13.28;100.00
13068;BME280;6600;51.362;6.686;2022-10-14T04:03:01;101006.81;;;13.29;100.00
13068;BME280;6600;51.362;6.686;2022-10-14T04:05:26;101014.28;;;13.27;100.00
13068;BME280;6600;51.362;6.686;2022-10-14T04:07:58;101000.69;;;13.22;100.00
13068;BME280;6600;51.362;6.686;2022-10-14T04:10:23;101018.03;;;13.26;100.00
13068;BME280;6600;51.362;6.686;2022-10-14T04:12:49;101009.78;;;13.21;100.00
13068;BME280;6600;51.362;6.686;2022-10-14T04:15:15;101001.41;;;13.29;100.00
13068;BME280;6600;51.362;6.686;2022-10-14T04:17:41;101007.25;;;13.26;100.00
13068;BME280;6600;51.362;6.686;2022-10-14T04:20:07;101004.41;;;13.21;100.00
13068;BME280;6600;51.362;6.686;2022-10-14T04:22:32;101007.25;;;13.26;100.00
13068;BME280;6600;51.362;6.686;2022-10-14T04:24:58;100994.72;;;13.20;100.00
13068;BME280;6600;51.362;6.686;2022-10-14T04:27:23;100990.97;;;13.21;100.00
13068;BME280;6600;51.362;6.686;2022-10-14T04:29:49;100995.31;;;13.22;100.00
13068;BME280;6600;51.362;6.686;2022-10-14T04:32:14;100988.25;;;13.21;100.00
13068;BME280;6600;51.362;6.686;2022-10-14T04:34:39;100993.66;;;13.21;100.00
13068;BME280;6600;51.362;6.686;2022-10-14T04:37:05;100990.38;;;13.19;100.00
13068;BME280;6600;51.362;6.686;2022-10-14T04:39:30;100990.38;;;13.19;100.00
13068;BME280;6600;51.362;6.686;2022-10-14T04:41:55;100994.09;;;13.18;100.00
13068;BME280;6600;51.362;6.686;2022-10-14T04:44:21;100989.53;;;13.19;100.00
13068;BME280;6600;51.362;6.686;2022-10-14T04:46:46;100989.34;;;13.20;100.00
13068;BME280;6600;51.362;6.686;2022-10-14T04:49:11;100979.59;;;13.19;100.00
13068;BME280;6600;51.362;6.686;2022-10-14T04:51:37;100985.13;;;13.24;100.00
13068;BME280;6600;51.362;6.686;2022-10-14T04:54:02;100970.25;;;13.22;100.00
13068;BME280;6600;51.362;6.686;2022-10-14T04:56:28;100972.28;;;13.26;100.00
13068;BME280;6600;51.362;6.686;2022-10-14T04:58:53;100974.34;;;13.24;100.00
13068;BME280;6600;51.362;6.686;2022-10-14T05:01:18;100964.06;;;13.21;100.00
13068;BME280;6600;51.362;6.686;2022-10-14T05:03:44;100965.84;;;13.27;100.00
13068;BME280;6600;51.362;6.686;2022-10-14T05:06:09;100960.47;;;13.27;100.00
13068;BME280;6600;51.362;6.686;2022-10-14T05:08:35;100961.63;;;13.31;100.00
13068;BME280;6600;51.362;6.686;2022-10-14T05:11:01;100963.16;;;13.27;100.00
13068;BME280;6600;51.362;6.686;2022-10-14T05:13:27;100955.09;;;13.27;100.00
13068;BME280;6600;51.362;6.686;2022-10-14T05:15:52;100960.47;;;13.27;100.00
13068;BME280;6600;51.362;6.686;2022-10-14T05:18:18;100953.19;;;13.28;100.00
13068;BME280;6600;51.362;6.686;2022-10-14T05:20:43;100949.72;;;13.27;100.00
13068;BME280;6600;51.362;6.686;2022-10-14T05:23:09;100944.31;;;13.27;100.00
13068;BME280;6600;51.362;6.686;2022-10-14T05:25:34;100942.59;;;13.33;100.00
13068;BME280;6600;51.362;6.686;2022-10-14T05:27:59;100946.22;;;13.38;100.00
13068;BME280;6600;51.362;6.686;2022-10-14T05:30:25;100942.94;;;13.36;100.00
13068;BME280;6600;51.362;6.686;2022-10-14T05:32:51;100943.41;;;13.33;100.00
13068;BME280;6600;51.362;6.686;2022-10-14T05:35:16;100946.22;;;13.38;100.00
13068;BME280;6600;51.362;6.686;2022-10-14T05:37:41;100933.38;;;13.40;100.00
13068;BME280;6600;51.362;6.686;2022-10-14T05:42:43;100936.66;;;13.42;100.00
13068;BME280;6600;51.362;6.686;2022-10-14T05:45:09;100938.75;;;13.40;100.00
13068;BME280;6600;51.362;6.686;2022-10-14T05:47:35;100937.25;;;13.44;100.00
13068;BME280;6600;51.362;6.686;2022-10-14T05:50:00;100930.81;;;13.45;100.00
13068;BME280;6600;51.362;6.686;2022-10-14T05:52:27;100925.88;;;13.42;100.00
13068;BME280;6600;51.362;6.686;2022-10-14T05:54:54;100927.16;;;13.40;100.00
13068;BME280;6600;51.362;6.686;2022-10-14T05:57:19;100918.41;;;13.44;100.00
13068;BME280;6600;51.362;6.686;2022-10-14T05:59:44;100916.75;;;13.43;100.00
13068;BME280;6600;51.362;6.686;2022-10-14T06:02:10;100911.75;;;13.47;100.00
13068;BME280;6600;51.362;6.686;2022-10-14T06:04:36;100907.19;;;13.47;100.00
13068;BME280;6600;51.362;6.686;2022-10-14T06:07:05;100914.19;;;13.48;100.00
13068;BME280;6600;51.362;6.686;2022-10-14T06:09:30;100910.47;;;13.49;100.00
13068;BME280;6600;51.362;6.686;2022-10-14T06:11:55;100915.38;;;13.52;100.00
13068;BME280;6600;51.362;6.686;2022-10-14T06:14:21;100913.75;;;13.51;100.00
13068;BME280;6600;51.362;6.686;2022-10-14T06:16:48;100914.09;;;13.55;100.00
13068;BME280;6600;51.362;6.686;2022-10-14T06:19:14;100904.59;;;13.52;100.00
13068;BME280;6600;51.362;6.686;2022-10-14T06:21:40;100910.59;;;13.54;100.00
13068;BME280;6600;51.362;6.686;2022-10-14T06:24:05;100903.47;;;13.60;100.00
13068;BME280;6600;51.362;6.686;2022-10-14T06:26:31;100912.38;;;13.60;100.00
13068;BME280;6600;51.362;6.686;2022-10-14T06:28:56;100913.19;;;13.61;100.00
13068;BME280;6600;51.362;6.686;2022-10-14T06:31:21;100913.56;;;13.64;100.00
13068;BME280;6600;51.362;6.686;2022-10-14T06:33:47;100916.25;;;13.64;100.00
13068;BME280;6600;51.362;6.686;2022-10-14T06:36:12;100915.78;;;13.68;100.00
13068;BME280;6600;51.362;6.686;2022-10-14T06:38:38;100912.47;;;13.65;100.00
13068;BME280;6600;51.362;6.686;2022-10-14T06:41:03;100901.97;;;13.64;100.00
13068;BME280;6600;51.362;6.686;2022-10-14T06:43:29;100901.97;;;13.64;100.00
13068;BME280;6600;51.362;6.686;2022-10-14T06:45:56;100905.47;;;13.64;100.00
13068;BME280;6600;51.362;6.686;2022-10-14T06:48:22;100906.06;;;13.66;100.00
13068;BME280;6600;51.362;6.686;2022-10-14T06:50:47;100899.47;;;13.62;100.00
13068;BME280;6600;51.362;6.686;2022-10-14T06:53:13;100899.38;;;13.69;100.00
13068;BME280;6600;51.362;6.686;2022-10-14T06:55:38;100895.88;;;13.69;100.00
13068;BME280;6600;51.362;6.686;2022-10-14T06:58:03;100892.25;;;13.75;100.00
13068;BME280;6600;51.362;6.686;2022-10-14T07:00:29;100892.25;;;13.75;100.00
13068;BME280;6600;51.362;6.686;2022-10-14T07:02:57;100891.78;;;13.78;100.00
13068;BME280;6600;51.362;6.686;2022-10-14T07:05:22;100884.75;;;13.77;100.00
13068;BME280;6600;51.362;6.686;2022-10-14T07:07:47;100893.31;;;13.74;100.00
13068;BME280;6600;51.362;6.686;2022-10-14T07:10:13;100891.78;;;13.78;100.00
13068;BME280;6600;51.362;6.686;2022-10-14T07:12:38;100895.06;;;13.80;100.00
13068;BME280;6600;51.362;6.686;2022-10-14T07:15:04;100881.84;;;13.78;100.00
13068;BME280;6600;51.362;6.686;2022-10-14T07:17:29;100877.84;;;13.81;100.00
13068;BME280;6600;51.362;6.686;2022-10-14T07:19:54;100878.91;;;13.80;100.00
13068;BME280;6600;51.362;6.686;2022-10-14T07:22:20;100888.06;;;13.79;100.00
13068;BME280;6600;51.362;6.686;2022-10-14T07:24:45;100883.81;;;13.83;100.00
13068;BME280;6600;51.362;6.686;2022-10-14T07:27:10;100878.91;;;13.80;100.00
13068;BME280;6600;51.362;6.686;2022-10-14T07:29:36;100887.59;;;13.82;100.00
13068;BME280;6600;51.362;6.686;2022-10-14T07:32:01;100883.38;;;13.86;100.00
13068;BME280;6600;51.362;6.686;2022-10-14T07:34:27;100875.41;;;13.91;100.00
13068;BME280;6600;51.362;6.686;2022-10-14T07:36:52;100882.09;;;13.88;100.00
13068;BME280;6600;51.362;6.686;2022-10-14T07:39:18;100873.88;;;13.83;100.00
13068;BME280;6600;51.362;6.686;2022-10-14T07:41:43;100869.91;;;13.86;100.00
13068;BME280;6600;51.362;6.686;2022-10-14T07:44:09;100881.63;;;13.91;100.00
13068;BME280;6600;51.362;6.686;2022-10-14T07:46:39;100889.44;;;13.93;100.00
13068;BME280;6600;51.362;6.686;2022-10-14T07:49:10;100881.84;;;13.90;100.00
13068;BME280;6600;51.362;6.686;2022-10-14T07:51:36;100890.63;;;13.97;100.00
13068;BME280;6600;51.362;6.686;2022-10-14T07:54:03;100898.50;;;13.98;100.00
13068;BME280;6600;51.362;6.686;2022-10-14T07:56:29;100891.81;;;14.01;100.00
13068;BME280;6600;51.362;6.686;2022-10-14T07:58:55;100898.25;;;14.00;100.00
13068;BME280;6600;51.362;6.686;2022-10-14T08:01:22;100887.81;;;14.03;100.00
13068;BME280;6600;51.362;6.686;2022-10-14T08:03:48;100878.94;;;14.03;100.00
13068;BME280;6600;51.362;6.686;2022-10-14T08:06:14;100883.97;;;13.99;100.00
13068;BME280;6600;51.362;6.686;2022-10-14T08:08:40;100875.31;;;14.09;100.00
13068;BME280;6600;51.362;6.686;2022-10-14T08:11:09;100872.59;;;14.09;100.00
13068;BME280;6600;51.362;6.686;2022-10-14T08:13:35;100868.03;;;14.09;100.00
13068;BME280;6600;51.362;6.686;2022-10-14T08:16:01;100863.81;;;14.13;100.00
13068;BME280;6600;51.362;6.686;2022-10-14T08:18:27;100852.56;;;14.16;100.00
13068;BME280;6600;51.362;6.686;2022-10-14T08:20:52;100851.84;;;14.21;100.00
13068;BME280;6600;51.362;6.686;2022-10-14T08:23:18;100852.56;;;14.28;100.00
13068;BME280;6600;51.362;6.686;2022-10-14T08:25:45;100859.72;;;14.34;100.00
13068;BME280;6600;51.362;6.686;2022-10-14T08:28:12;100857.84;;;14.35;100.00
13068;BME280;6600;51.362;6.686;2022-10-14T08:30:37;100845.53;;;14.39;100.00
13068;BME280;6600;51.362;6.686;2022-10-14T08:33:02;100844.22;;;14.41;100.00
13068;BME280;6600;51.362;6.686;2022-10-14T08:35:28;100845.88;;;14.42;100.00
13068;BME280;6600;51.362;6.686;2022-10-14T08:37:57;100836.25;;;14.46;100.00
13068;BME280;6600;51.362;6.686;2022-10-14T08:40:22;100838.00;;;14.52;100.00
13068;BME280;6600;51.362;6.686;2022-10-14T08:42:59;100836.47;;;14.56;100.00
13068;BME280;6600;51.362;6.686;2022-10-14T08:45:38;100837.03;;;14.58;100.00
13068;BME280;6600;51.362;6.686;2022-10-14T08:48:13;100835.03;;;14.65;100.00
13068;BME280;6600;51.362;6.686;2022-10-14T08:50:45;100828.03;;;14.64;100.00
13068;BME280;6600;51.362;6.686;2022-10-14T08:53:16;100822.47;;;14.71;100.00
13068;BME280;6600;51.362;6.686;2022-10-14T08:55:50;100820.84;;;14.70;100.00
13068;BME280;6600;51.362;6.686;2022-10-14T09:00:53;100824.44;;;14.76;100.00
13068;BME280;6600;51.362;6.686;2022-10-14T09:03:21;100821.19;;;14.74;100.00
13068;BME280;6600;51.362;6.686;2022-10-14T09:05:59;100827.25;;;14.81;100.00
13068;BME280;6600;51.362;6.686;2022-10-14T09:08:34;100820.22;;;14.80;100.00
13068;BME280;6600;51.362;6.686;2022-10-14T09:11:03;100822.09;;;14.79;100.00
13068;BME280;6600;51.362;6.686;2022-10-14T09:13:38;100812.84;;;14.75;100.00
13068;BME280;6600;51.362;6.686;2022-10-14T09:18:53;100810.94;;;14.76;100.00
13068;BME280;6600;51.362;6.686;2022-10-14T09:23:44;100805.09;;;14.79;100.00
13068;BME280;6600;51.362;6.686;2022-10-14T09:26:16;100810.09;;;14.87;100.00
13068;BME280;6600;51.362;6.686;2022-10-14T09:28:44;100810.59;;;14.84;100.00
13068;BME280;6600;51.362;6.686;2022-10-14T09:31:11;100803.72;;;14.93;100.00
13068;BME280;6600;51.362;6.686;2022-10-14T09:33:37;100800.09;;;14.99;100.00
13068;BME280;6600;51.362;6.686;2022-10-14T09:36:05;100800.16;;;15.04;100.00
13068;BME280;6600;51.362;6.686;2022-10-14T09:38:31;100805.22;;;15.00;100.00
13068;BME280;6600;51.362;6.686;2022-10-14T09:40:59;100802.28;;;15.02;100.00
13068;BME280;6600;51.362;6.686;2022-10-14T09:43:25;100805.22;;;15.00;100.00
13068;BME280;6600;51.362;6.686;2022-10-14T09:45:59;100804.00;;;15.08;100.00
13068;BME280;6600;51.362;6.686;2022-10-14T09:48:57;100803.34;;;15.01;100.00
13068;BME280;6600;51.362;6.686;2022-10-14T09:51:28;100800.16;;;15.04;100.00
13068;BME280;6600;51.362;6.686;2022-10-14T09:53:56;100800.16;;;15.04;100.00
13068;BME280;6600;51.362;6.686;2022-10-14T09:58:56;100796.25;;;15.11;100.00
13068;BME280;6600;51.362;6.686;2022-10-14T10:01:28;100787.44;;;15.16;100.00
13068;BME280;6600;51.362;6.686;2022-10-14T10:03:55;100798.06;;;15.23;100.00
13068;BME280;6600;51.362;6.686;2022-10-14T10:06:25;100789.72;;;15.24;100.00
13068;BME280;6600;51.362;6.686;2022-10-14T10:11:34;100777.97;;;15.30;100.00
13068;BME280;6600;51.362;6.686;2022-10-14T10:14:23;100777.97;;;15.30;100.00
13068;BME280;6600;51.362;6.686;2022-10-14T10:16:51;100773.69;;;15.34;100.00
13068;BME280;6600;51.362;6.686;2022-10-14T10:19:40;100772.13;;;15.38;100.00
13068;BME280;6600;51.362;6.686;2022-10-14T10:22:25;100768.88;;;15.36;100.00
13068;BME280;6600;51.362;6.686;2022-10-14T10:27:40;100768.88;;;15.36;100.00
13068;BME280;6600;51.362;6.686;2022-10-14T10:38:32;100753.06;;;15.28;100.00
13068;BME280;6600;51.362;6.686;2022-10-14T10:49:34;100744.47;;;15.31;100.00
13068;BME280;6600;51.362;6.686;2022-10-14T11:00:21;100736.53;;;15.41;100.00
13068;BME280;6600;51.362;6.686;2022-10-14T11:02:58;100734.09;;;15.40;100.00
13068;BME280;6600;51.362;6.686;2022-10-14T11:08:48;100730.66;;;15.44;100.00
13068;BME280;6600;51.362;6.686;2022-10-14T11:11:49;100727.69;;;15.46;100.00
13068;BME280;6600;51.362;6.686;2022-10-14T11:20:02;100732.56;;;15.27;100.00
13068;BME280;6600;51.362;6.686;2022-10-14T11:22:43;100731.47;;;15.28;100.00
13068;BME280;6600;51.362;6.686;2022-10-14T11:28:20;100712.69;;;15.16;100.00
13068;BME280;6600;51.362;6.686;2022-10-14T11:34:22;100719.19;;;15.21;100.00
13068;BME280;6600;51.362;6.686;2022-10-14T11:37:02;100712.19;;;15.20;100.00
13068;BME280;6600;51.362;6.686;2022-10-14T11:39:41;100714.63;;;15.21;100.00
13068;BME280;6600;51.362;6.686;2022-10-14T11:42:20;100702.69;;;15.17;100.00
13068;BME280;6600;51.362;6.686;2022-10-14T11:47:38;100697.94;;;15.24;100.00
13068;BME280;6600;51.362;6.686;2022-10-14T11:50:14;100692.63;;;15.29;100.00
13068;BME280;6600;51.362;6.686;2022-10-14T11:52:49;100696.38;;;15.28;100.00
13068;BME280;6600;51.362;6.686;2022-10-14T11:55:22;100690.56;;;15.36;100.00
13068;BME280;6600;51.362;6.686;2022-10-14T11:57:54;100681.41;;;15.37;100.00
13068;BME280;6600;51.362;6.686;2022-10-14T12:00:26;100684.75;;;15.44;100.00
13068;BME280;6600;51.362;6.686;2022-10-14T12:06:17;100677.72;;;15.43;100.00
13068;BME280;6600;51.362;6.686;2022-10-14T12:11:55;100676.16;;;15.47;100.00
13068;BME280;6600;51.362;6.686;2022-10-14T12:17:18;100666.03;;;15.54;100.00
13068;BME280;6600;51.362;6.686;2022-10-14T12:19:45;100670.94;;;15.57;100.00
13068;BME280;6600;51.362;6.686;2022-10-14T12:22:25;100665.78;;;15.56;100.00
13068;BME280;6600;51.362;6.686;2022-10-14T12:24:57;100659.00;;;15.53;100.00
13068;BME280;6600;51.362;6.686;2022-10-14T12:27:26;100652.53;;;15.54;100.00
13068;BME280;6600;51.362;6.686;2022-10-14T12:29:53;100649.75;;;15.49;100.00
13068;BME280;6600;51.362;6.686;2022-10-14T12:32:26;100649.84;;;15.54;100.00
13068;BME280;6600;51.362;6.686;2022-10-14T12:35:01;100641.47;;;15.56;100.00
13068;BME280;6600;51.362;6.686;2022-10-14T12:37:39;100647.69;;;15.56;100.00
13068;BME280;6600;51.362;6.686;2022-10-14T12:43:03;100633.94;;;15.58;100.00
13068;BME280;6600;51.362;6.686;2022-10-14T12:45:32;100628.28;;;15.59;100.00
13068;BME280;6600;51.362;6.686;2022-10-14T12:48:23;100621.88;;;15.65;100.00
13068;BME280;6600;51.362;6.686;2022-10-14T12:50:49;100627.91;;;15.73;100.00
13068;BME280;6600;51.362;6.686;2022-10-14T12:53:29;100623.09;;;15.75;100.00
13068;BME280;6600;51.362;6.686;2022-10-14T12:56:00;100624.38;;;15.72;100.00
13068;BME280;6600;51.362;6.686;2022-10-14T12:58:29;100617.69;;;15.75;100.00
13068;BME280;6600;51.362;6.686;2022-10-14T13:01:02;100615.59;;;15.82;100.00
13068;BME280;6600;51.362;6.686;2022-10-14T13:03:31;100606.38;;;15.78;100.00
13068;BME280;6600;51.362;6.686;2022-10-14T13:16:53;100587.13;;;15.96;100.00
13068;BME280;6600;51.362;6.686;2022-10-14T13:19:45;100591.41;;;15.92;100.00
13068;BME280;6600;51.362;6.686;2022-10-14T13:25:13;100574.06;;;15.88;100.00
13068;BME280;6600;51.362;6.686;2022-10-14T13:32:55;100565.84;;;15.78;100.00
13068;BME280;6600;51.362;6.686;2022-10-14T13:37:55;100563.06;;;15.73;100.00
13068;BME280;6600;51.362;6.686;2022-10-14T13:40:37;100562.19;;;15.67;100.00
13068;BME280;6600;51.362;6.686;2022-10-14T13:43:26;100566.78;;;15.66;100.00
13068;BME280;6600;51.362;6.686;2022-10-14T13:45:57;100562.13;;;15.62;100.00
13068;BME280;6600;51.362;6.686;2022-10-14T13:48:33;100555.34;;;15.59;100.00
13068;BME280;6600;51.362;6.686;2022-10-14T13:53:53;100558.63;;;15.61;100.00
13068;BME280;6600;51.362;6.686;2022-10-14T13:56:26;100564.50;;;15.58;100.00
13068;BME280;6600;51.362;6.686;2022-10-14T13:58:52;100562.72;;;15.64;100.00
13068;BME280;6600;51.362;6.686;2022-10-14T14:01:20;100558.31;;;15.58;100.00
13068;BME280;6600;51.362;6.686;2022-10-14T14:03:52;100554.84;;;15.62;100.00
13068;BME280;6600;51.362;6.686;2022-10-14T14:06:20;100551.09;;;15.63;100.00
13068;BME280;6600;51.362;6.686;2022-10-14T14:08:48;100550.47;;;15.56;100.00
13068;BME280;6600;51.362;6.686;2022-10-14T14:11:17;100557.19;;;15.54;100.00
13068;BME280;6600;51.362;6.686;2022-10-14T14:16:34;100556.06;;;15.50;100.00
13068;BME280;6600;51.362;6.686;2022-10-14T14:19:00;100556.38;;;15.53;100.00
13068;BME280;6600;51.362;6.686;2022-10-14T14:21:27;100544.44;;;15.49;100.00
13068;BME280;6600;51.362;6.686;2022-10-14T14:23:58;100549.84;;;15.49;100.00
13068;BME280;6600;51.362;6.686;2022-10-14T14:28:58;100534.25;;;15.56;100.00
13068;BME280;6600;51.362;6.686;2022-10-14T14:31:25;100522.63;;;15.56;100.00
13068;BME280;6600;51.362;6.686;2022-10-14T14:33:56;100532.63;;;15.55;100.00
13068;BME280;6600;51.362;6.686;2022-10-14T14:36:24;100532.09;;;15.58;100.00
13068;BME280;6600;51.362;6.686;2022-10-14T14:38:57;100531.63;;;15.61;100.00
13068;BME280;6600;51.362;6.686;2022-10-14T14:41:28;100533.19;;;15.57;100.00
13068;BME280;6600;51.362;6.686;2022-10-14T14:43:56;100529.69;;;15.57;100.00
13068;BME280;6600;51.362;6.686;2022-10-14T14:46:34;100527.78;;;15.57;100.00
13068;BME280;6600;51.362;6.686;2022-10-14T14:49:01;100528.34;;;15.59;100.00
13068;BME280;6600;51.362;6.686;2022-10-14T14:51:32;100521.31;;;15.58;100.00
13068;BME280;6600;51.362;6.686;2022-10-14T14:53:59;100516.72;;;15.59;100.00
13068;BME280;6600;51.362;6.686;2022-10-14T14:56:29;100520.22;;;15.54;100.00
13068;BME280;6600;51.362;6.686;2022-10-14T14:59:04;100518.06;;;15.56;100.00
13068;BME280;6600;51.362;6.686;2022-10-14T15:01:31;100516.41;;;15.55;100.00